This is the latest recevied weather packets stored in our database for station/object N6DZK. If no packets are shown the sender has not sent any weather packets the latest 10 day(s).
| Time | Temp. | Humidity | Pressure | Rain* | Wind** | Luminosity | Snow |
|---|---|---|---|---|---|---|---|
| 1777911883 | 17.78° C | 60% | 1015.4 hPa | 0 mm | - | 647 W/m² | - |
| 1777911579 | 17.78° C | 58% | 1015.6 hPa | 0 mm | - | 611 W/m² | - |
| 1777911275 | 17.78° C | 62% | 1015.6 hPa | 0 mm | - | 581 W/m² | - |
| 1777910972 | 17.22° C | 64% | 1015.6 hPa | 0 mm | - | 555 W/m² | - |
| 1777910671 | 17.22° C | 65% | 1015.5 hPa | 0 mm | - | 528 W/m² | - |
| 1777910367 | 17.22° C | 64% | 1015.7 hPa | 0 mm | - | 447 W/m² | - |
| 1777910063 | 17.22° C | 65% | 1015.7 hPa | 0 mm | - | 531 W/m² | - |
| 1777909761 | 16.67° C | 65% | 1015.6 hPa | 0 mm | - | 578 W/m² | - |
| 1777909457 | 17.22° C | 65% | 1015.7 hPa | 0 mm | - | 464 W/m² | - |
| 1777909156 | 16.67° C | 66% | 1015.9 hPa | 0 mm | - | 356 W/m² | - |
| 1777908854 | 16.11° C | 69% | 1015.8 hPa | 0 mm | - | 323 W/m² | - |
| 1777908550 | 16.11° C | 69% | 1015.7 hPa | 0 mm | - | 314 W/m² | - |
| 1777908247 | 15.56° C | 68% | 1015.9 hPa | 0 mm | - | 321 W/m² | - |
| 1777907943 | 16.11° C | 68% | 1015.8 hPa | 0 mm | - | 306 W/m² | - |
| 1777907638 | 16.11° C | 66% | 1016 hPa | 0 mm | - | 271 W/m² | - |
| 1777907334 | 16.11° C | 68% | 1015.8 hPa | 0 mm | - | 230 W/m² | - |
| 1777907031 | 16.11° C | 66% | 1015.8 hPa | 0 mm | - | 210 W/m² | - |
| 1777906729 | 16.11° C | 64% | 1016 hPa | 0 mm | - | 196 W/m² | - |
| 1777906425 | 15.56° C | 65% | 1015.8 hPa | 0 mm | - | 182 W/m² | - |
| 1777906122 | 15° C | 70% | 1015.7 hPa | 0 mm | - | 153 W/m² | - |
| 1777905818 | 13.89° C | 73% | 1015.8 hPa | 0 mm | - | 137 W/m² | - |
| 1777905516 | 13.33° C | 78% | 1015.8 hPa | 0 mm | - | 127 W/m² | - |
| 1777905212 | 12.22° C | 83% | 1015.7 hPa | 0 mm | - | 114 W/m² | - |
| 1777904910 | 11.67° C | 92% | 1015.7 hPa | 0 mm | - | 106 W/m² | - |
| 1777904607 | 11.11° C | 97% | 1015.7 hPa | 0 mm | - | 98 W/m² | - |
* Rain latest hour (hover to see other rain measurements)
** Current wind speed in m/s (hover to see current wind gust speed)